sensor_id;sensor_type;location;lat;lon;timestamp;P1;durP1;ratioP1;P2;durP2;ratioP2
65715;SDS011;63484;52.054;8.518;2023-07-09T00:04:45;9.13;;;5.57;;
65715;SDS011;63484;52.054;8.518;2023-07-09T00:09:47;12.43;;;6.18;;
65715;SDS011;63484;52.054;8.518;2023-07-09T00:14:50;12.98;;;7.20;;
65715;SDS011;63484;52.054;8.518;2023-07-09T00:19:52;10.27;;;6.57;;
65715;SDS011;63484;52.054;8.518;2023-07-09T00:24:54;11.30;;;6.72;;
65715;SDS011;63484;52.054;8.518;2023-07-09T00:29:58;9.40;;;6.47;;
65715;SDS011;63484;52.054;8.518;2023-07-09T00:35:00;16.02;;;6.30;;
65715;SDS011;63484;52.054;8.518;2023-07-09T00:40:08;10.50;;;5.72;;
65715;SDS011;63484;52.054;8.518;2023-07-09T00:45:23;12.38;;;6.22;;
65715;SDS011;63484;52.054;8.518;2023-07-09T00:50:32;13.52;;;6.70;;
65715;SDS011;63484;52.054;8.518;2023-07-09T00:55:37;9.75;;;6.20;;
65715;SDS011;63484;52.054;8.518;2023-07-09T01:00:46;10.52;;;6.15;;
65715;SDS011;63484;52.054;8.518;2023-07-09T01:05:53;12.85;;;6.40;;
65715;SDS011;63484;52.054;8.518;2023-07-09T01:10:55;10.70;;;6.10;;
65715;SDS011;63484;52.054;8.518;2023-07-09T01:15:59;10.98;;;6.22;;
65715;SDS011;63484;52.054;8.518;2023-07-09T01:21:08;11.38;;;6.65;;
65715;SDS011;63484;52.054;8.518;2023-07-09T01:26:16;13.00;;;6.72;;
65715;SDS011;63484;52.054;8.518;2023-07-09T01:31:21;12.90;;;6.40;;
65715;SDS011;63484;52.054;8.518;2023-07-09T01:36:24;10.90;;;6.50;;
65715;SDS011;63484;52.054;8.518;2023-07-09T01:41:29;15.88;;;7.18;;
65715;SDS011;63484;52.054;8.518;2023-07-09T01:46:34;9.05;;;6.00;;
65715;SDS011;63484;52.054;8.518;2023-07-09T01:51:39;10.85;;;6.00;;
65715;SDS011;63484;52.054;8.518;2023-07-09T01:56:41;10.00;;;6.47;;
65715;SDS011;63484;52.054;8.518;2023-07-09T02:01:43;13.27;;;6.28;;
65715;SDS011;63484;52.054;8.518;2023-07-09T02:06:46;10.45;;;6.32;;
65715;SDS011;63484;52.054;8.518;2023-07-09T02:11:48;14.50;;;6.28;;
65715;SDS011;63484;52.054;8.518;2023-07-09T02:16:50;11.15;;;6.70;;
65715;SDS011;63484;52.054;8.518;2023-07-09T02:21:53;13.75;;;6.13;;
65715;SDS011;63484;52.054;8.518;2023-07-09T02:26:55;9.10;;;5.40;;
65715;SDS011;63484;52.054;8.518;2023-07-09T02:31:58;9.35;;;6.53;;
65715;SDS011;63484;52.054;8.518;2023-07-09T02:42:07;11.10;;;6.45;;
65715;SDS011;63484;52.054;8.518;2023-07-09T02:47:10;10.20;;;6.85;;
65715;SDS011;63484;52.054;8.518;2023-07-09T02:52:13;9.43;;;6.25;;
65715;SDS011;63484;52.054;8.518;2023-07-09T02:57:15;13.52;;;6.30;;
65715;SDS011;63484;52.054;8.518;2023-07-09T03:02:17;10.02;;;6.28;;
65715;SDS011;63484;52.054;8.518;2023-07-09T03:07:20;8.45;;;6.30;;
65715;SDS011;63484;52.054;8.518;2023-07-09T03:12:22;10.00;;;6.75;;
65715;SDS011;63484;52.054;8.518;2023-07-09T03:17:24;9.23;;;6.18;;
65715;SDS011;63484;52.054;8.518;2023-07-09T03:22:27;8.48;;;5.78;;
65715;SDS011;63484;52.054;8.518;2023-07-09T03:27:28;10.77;;;6.80;;
65715;SDS011;63484;52.054;8.518;2023-07-09T03:32:30;8.65;;;6.32;;
65715;SDS011;63484;52.054;8.518;2023-07-09T03:37:33;9.52;;;6.53;;
65715;SDS011;63484;52.054;8.518;2023-07-09T03:42:35;12.10;;;6.57;;
65715;SDS011;63484;52.054;8.518;2023-07-09T03:47:36;8.77;;;6.20;;
65715;SDS011;63484;52.054;8.518;2023-07-09T03:52:39;14.07;;;6.60;;
65715;SDS011;63484;52.054;8.518;2023-07-09T03:57:41;10.48;;;6.13;;
65715;SDS011;63484;52.054;8.518;2023-07-09T04:02:43;10.55;;;5.97;;
65715;SDS011;63484;52.054;8.518;2023-07-09T04:07:46;8.95;;;6.50;;
65715;SDS011;63484;52.054;8.518;2023-07-09T04:12:47;9.98;;;5.88;;
65715;SDS011;63484;52.054;8.518;2023-07-09T04:17:49;10.40;;;6.45;;
65715;SDS011;63484;52.054;8.518;2023-07-09T04:22:53;10.45;;;5.57;;
65715;SDS011;63484;52.054;8.518;2023-07-09T04:27:55;8.90;;;5.95;;
65715;SDS011;63484;52.054;8.518;2023-07-09T04:32:57;10.48;;;5.85;;
65715;SDS011;63484;52.054;8.518;2023-07-09T04:38:00;13.27;;;6.22;;
65715;SDS011;63484;52.054;8.518;2023-07-09T04:43:02;10.00;;;6.15;;
65715;SDS011;63484;52.054;8.518;2023-07-09T04:48:04;8.73;;;6.20;;
65715;SDS011;63484;52.054;8.518;2023-07-09T04:53:08;11.27;;;6.40;;
65715;SDS011;63484;52.054;8.518;2023-07-09T04:58:11;12.95;;;6.13;;
65715;SDS011;63484;52.054;8.518;2023-07-09T05:03:13;11.90;;;6.82;;
65715;SDS011;63484;52.054;8.518;2023-07-09T05:08:16;9.13;;;6.03;;
65715;SDS011;63484;52.054;8.518;2023-07-09T05:13:18;8.25;;;6.25;;
65715;SDS011;63484;52.054;8.518;2023-07-09T05:18:20;13.50;;;6.53;;
65715;SDS011;63484;52.054;8.518;2023-07-09T05:23:24;9.35;;;6.38;;
65715;SDS011;63484;52.054;8.518;2023-07-09T05:28:27;8.68;;;5.80;;
65715;SDS011;63484;52.054;8.518;2023-07-09T05:33:29;10.73;;;6.50;;
65715;SDS011;63484;52.054;8.518;2023-07-09T05:38:32;9.90;;;6.60;;
65715;SDS011;63484;52.054;8.518;2023-07-09T05:43:34;11.35;;;6.05;;
65715;SDS011;63484;52.054;8.518;2023-07-09T05:48:36;11.55;;;6.57;;
65715;SDS011;63484;52.054;8.518;2023-07-09T05:53:39;9.48;;;6.15;;
65715;SDS011;63484;52.054;8.518;2023-07-09T05:58:40;9.50;;;6.03;;
65715;SDS011;63484;52.054;8.518;2023-07-09T06:03:42;9.63;;;5.50;;
65715;SDS011;63484;52.054;8.518;2023-07-09T06:08:50;12.73;;;5.60;;
65715;SDS011;63484;52.054;8.518;2023-07-09T06:13:54;9.77;;;5.53;;
65715;SDS011;63484;52.054;8.518;2023-07-09T06:18:55;8.65;;;5.85;;
65715;SDS011;63484;52.054;8.518;2023-07-09T06:23:58;9.88;;;5.38;;
65715;SDS011;63484;52.054;8.518;2023-07-09T06:29:00;7.13;;;5.15;;
65715;SDS011;63484;52.054;8.518;2023-07-09T06:34:02;10.20;;;5.03;;
65715;SDS011;63484;52.054;8.518;2023-07-09T06:39:05;8.35;;;5.20;;
65715;SDS011;63484;52.054;8.518;2023-07-09T06:49:11;7.72;;;5.40;;
65715;SDS011;63484;52.054;8.518;2023-07-09T06:54:14;8.10;;;5.50;;
65715;SDS011;63484;52.054;8.518;2023-07-09T06:59:16;7.72;;;4.70;;
65715;SDS011;63484;52.054;8.518;2023-07-09T07:04:18;9.00;;;4.95;;
65715;SDS011;63484;52.054;8.518;2023-07-09T07:14:22;7.82;;;4.50;;
65715;SDS011;63484;52.054;8.518;2023-07-09T07:19:24;5.90;;;4.35;;
65715;SDS011;63484;52.054;8.518;2023-07-09T07:24:27;12.80;;;5.05;;
65715;SDS011;63484;52.054;8.518;2023-07-09T07:29:29;7.15;;;4.35;;
65715;SDS011;63484;52.054;8.518;2023-07-09T07:34:33;8.65;;;4.50;;
65715;SDS011;63484;52.054;8.518;2023-07-09T07:39:36;8.05;;;5.22;;
65715;SDS011;63484;52.054;8.518;2023-07-09T07:44:40;12.30;;;4.68;;
65715;SDS011;63484;52.054;8.518;2023-07-09T07:49:42;5.88;;;4.55;;
65715;SDS011;63484;52.054;8.518;2023-07-09T07:54:45;6.30;;;4.85;;
65715;SDS011;63484;52.054;8.518;2023-07-09T07:59:47;8.38;;;5.10;;
65715;SDS011;63484;52.054;8.518;2023-07-09T08:04:48;6.90;;;4.30;;
65715;SDS011;63484;52.054;8.518;2023-07-09T08:09:52;6.57;;;4.40;;
65715;SDS011;63484;52.054;8.518;2023-07-09T08:14:53;7.30;;;4.60;;
65715;SDS011;63484;52.054;8.518;2023-07-09T08:19:55;9.18;;;4.68;;
65715;SDS011;63484;52.054;8.518;2023-07-09T08:25:00;6.03;;;4.40;;
65715;SDS011;63484;52.054;8.518;2023-07-09T08:30:02;10.20;;;4.80;;
65715;SDS011;63484;52.054;8.518;2023-07-09T08:35:04;6.97;;;4.80;;
65715;SDS011;63484;52.054;8.518;2023-07-09T08:40:09;8.88;;;5.03;;
65715;SDS011;63484;52.054;8.518;2023-07-09T08:45:21;6.45;;;5.00;;
65715;SDS011;63484;52.054;8.518;2023-07-09T08:50:32;7.85;;;5.22;;
65715;SDS011;63484;52.054;8.518;2023-07-09T08:55:40;6.38;;;5.13;;
65715;SDS011;63484;52.054;8.518;2023-07-09T09:00:46;7.38;;;4.93;;
65715;SDS011;63484;52.054;8.518;2023-07-09T09:05:54;6.10;;;4.82;;
65715;SDS011;63484;52.054;8.518;2023-07-09T09:11:01;6.38;;;4.82;;
65715;SDS011;63484;52.054;8.518;2023-07-09T09:16:18;8.23;;;4.70;;
65715;SDS011;63484;52.054;8.518;2023-07-09T09:21:26;10.68;;;5.00;;
65715;SDS011;63484;52.054;8.518;2023-07-09T09:26:34;7.07;;;4.80;;
65715;SDS011;63484;52.054;8.518;2023-07-09T09:31:40;7.35;;;4.97;;
65715;SDS011;63484;52.054;8.518;2023-07-09T09:36:45;6.75;;;4.57;;
65715;SDS011;63484;52.054;8.518;2023-07-09T09:41:51;9.30;;;5.15;;
65715;SDS011;63484;52.054;8.518;2023-07-09T09:46:55;6.78;;;4.90;;
65715;SDS011;63484;52.054;8.518;2023-07-09T09:52:01;8.45;;;4.78;;
65715;SDS011;63484;52.054;8.518;2023-07-09T09:57:14;6.22;;;4.35;;
65715;SDS011;63484;52.054;8.518;2023-07-09T10:02:18;12.32;;;4.55;;
65715;SDS011;63484;52.054;8.518;2023-07-09T10:07:23;6.25;;;4.30;;
65715;SDS011;63484;52.054;8.518;2023-07-09T10:12:36;6.07;;;4.00;;
65715;SDS011;63484;52.054;8.518;2023-07-09T10:17:48;8.53;;;4.20;;
65715;SDS011;63484;52.054;8.518;2023-07-09T10:23:01;6.28;;;4.10;;
65715;SDS011;63484;52.054;8.518;2023-07-09T10:28:21;8.98;;;3.97;;
65715;SDS011;63484;52.054;8.518;2023-07-09T10:33:44;11.98;;;4.35;;
65715;SDS011;63484;52.054;8.518;2023-07-09T10:38:55;7.65;;;4.22;;
65715;SDS011;63484;52.054;8.518;2023-07-09T10:44:04;8.27;;;4.00;;
65715;SDS011;63484;52.054;8.518;2023-07-09T10:49:13;7.55;;;4.38;;
65715;SDS011;63484;52.054;8.518;2023-07-09T10:54:21;8.45;;;4.15;;
65715;SDS011;63484;52.054;8.518;2023-07-09T10:59:34;6.32;;;4.72;;
65715;SDS011;63484;52.054;8.518;2023-07-09T11:04:39;9.20;;;4.60;;
65715;SDS011;63484;52.054;8.518;2023-07-09T11:09:46;12.60;;;4.60;;
65715;SDS011;63484;52.054;8.518;2023-07-09T11:14:59;10.23;;;4.70;;
65715;SDS011;63484;52.054;8.518;2023-07-09T11:20:06;6.78;;;4.60;;
65715;SDS011;63484;52.054;8.518;2023-07-09T11:25:26;13.15;;;4.68;;
65715;SDS011;63484;52.054;8.518;2023-07-09T11:30:30;7.88;;;4.40;;
65715;SDS011;63484;52.054;8.518;2023-07-09T11:35:42;6.45;;;4.22;;
65715;SDS011;63484;52.054;8.518;2023-07-09T11:40:50;8.02;;;4.20;;
65715;SDS011;63484;52.054;8.518;2023-07-09T11:46:02;8.52;;;4.10;;
65715;SDS011;63484;52.054;8.518;2023-07-09T11:51:14;5.95;;;3.78;;
65715;SDS011;63484;52.054;8.518;2023-07-09T11:56:20;8.80;;;3.65;;
65715;SDS011;63484;52.054;8.518;2023-07-09T12:01:25;9.20;;;4.28;;
65715;SDS011;63484;52.054;8.518;2023-07-09T12:06:32;9.10;;;4.13;;
65715;SDS011;63484;52.054;8.518;2023-07-09T12:11:35;8.15;;;4.10;;
65715;SDS011;63484;52.054;8.518;2023-07-09T12:16:39;9.65;;;4.93;;
65715;SDS011;63484;52.054;8.518;2023-07-09T12:21:45;7.28;;;4.50;;
65715;SDS011;63484;52.054;8.518;2023-07-09T12:26:49;7.88;;;4.20;;
65715;SDS011;63484;52.054;8.518;2023-07-09T12:36:53;4.88;;;4.10;;
65715;SDS011;63484;52.054;8.518;2023-07-09T12:41:59;6.53;;;4.38;;
65715;SDS011;63484;52.054;8.518;2023-07-09T12:47:04;11.52;;;4.68;;
65715;SDS011;63484;52.054;8.518;2023-07-09T12:52:10;7.70;;;4.10;;
65715;SDS011;63484;52.054;8.518;2023-07-09T12:57:17;7.35;;;4.38;;
65715;SDS011;63484;52.054;8.518;2023-07-09T13:02:23;8.05;;;4.10;;
65715;SDS011;63484;52.054;8.518;2023-07-09T13:07:29;10.05;;;4.30;;
65715;SDS011;63484;52.054;8.518;2023-07-09T13:12:38;7.78;;;3.92;;
65715;SDS011;63484;52.054;8.518;2023-07-09T13:17:44;8.13;;;3.83;;
65715;SDS011;63484;52.054;8.518;2023-07-09T13:22:46;7.32;;;4.10;;
65715;SDS011;63484;52.054;8.518;2023-07-09T13:27:50;7.47;;;3.60;;
65715;SDS011;63484;52.054;8.518;2023-07-09T13:32:53;8.73;;;3.90;;
65715;SDS011;63484;52.054;8.518;2023-07-09T13:37:55;5.88;;;3.30;;
65715;SDS011;63484;52.054;8.518;2023-07-09T13:42:58;8.80;;;3.67;;
65715;SDS011;63484;52.054;8.518;2023-07-09T13:48:01;8.48;;;3.55;;
65715;SDS011;63484;52.054;8.518;2023-07-09T13:53:03;7.90;;;3.50;;
65715;SDS011;63484;52.054;8.518;2023-07-09T13:58:04;8.13;;;3.13;;
65715;SDS011;63484;52.054;8.518;2023-07-09T14:03:09;4.97;;;3.20;;
65715;SDS011;63484;52.054;8.518;2023-07-09T14:08:15;5.50;;;3.15;;
65715;SDS011;63484;52.054;8.518;2023-07-09T14:13:20;6.35;;;3.55;;
65715;SDS011;63484;52.054;8.518;2023-07-09T14:18:28;6.30;;;3.75;;
65715;SDS011;63484;52.054;8.518;2023-07-09T14:23:29;7.45;;;3.90;;
65715;SDS011;63484;52.054;8.518;2023-07-09T14:28:31;6.63;;;3.55;;
65715;SDS011;63484;52.054;8.518;2023-07-09T14:33:35;6.80;;;3.83;;
65715;SDS011;63484;52.054;8.518;2023-07-09T14:38:37;10.18;;;4.22;;
65715;SDS011;63484;52.054;8.518;2023-07-09T14:43:39;8.55;;;4.43;;
65715;SDS011;63484;52.054;8.518;2023-07-09T14:48:42;7.40;;;3.88;;
65715;SDS011;63484;52.054;8.518;2023-07-09T14:53:43;9.18;;;3.97;;
65715;SDS011;63484;52.054;8.518;2023-07-09T15:03:48;6.97;;;4.00;;
65715;SDS011;63484;52.054;8.518;2023-07-09T15:08:50;8.90;;;4.50;;
65715;SDS011;63484;52.054;8.518;2023-07-09T15:13:52;8.57;;;4.40;;
65715;SDS011;63484;52.054;8.518;2023-07-09T15:18:55;7.57;;;4.20;;
65715;SDS011;63484;52.054;8.518;2023-07-09T15:23:56;7.93;;;4.07;;
65715;SDS011;63484;52.054;8.518;2023-07-09T15:29:00;8.35;;;3.58;;
65715;SDS011;63484;52.054;8.518;2023-07-09T15:34:06;8.00;;;4.15;;
65715;SDS011;63484;52.054;8.518;2023-07-09T15:39:10;7.30;;;4.05;;
65715;SDS011;63484;52.054;8.518;2023-07-09T15:49:15;8.82;;;4.18;;
65715;SDS011;63484;52.054;8.518;2023-07-09T15:54:17;10.88;;;4.25;;
65715;SDS011;63484;52.054;8.518;2023-07-09T15:59:24;12.90;;;4.90;;
65715;SDS011;63484;52.054;8.518;2023-07-09T16:04:30;10.45;;;4.35;;
65715;SDS011;63484;52.054;8.518;2023-07-09T16:09:32;5.45;;;4.22;;
65715;SDS011;63484;52.054;8.518;2023-07-09T16:14:34;9.98;;;4.60;;
65715;SDS011;63484;52.054;8.518;2023-07-09T16:19:37;9.18;;;4.82;;
65715;SDS011;63484;52.054;8.518;2023-07-09T16:24:39;5.78;;;4.25;;
65715;SDS011;63484;52.054;8.518;2023-07-09T16:29:43;7.40;;;4.18;;
65715;SDS011;63484;52.054;8.518;2023-07-09T16:34:48;15.93;;;5.35;;
65715;SDS011;63484;52.054;8.518;2023-07-09T16:39:50;8.43;;;4.78;;
65715;SDS011;63484;52.054;8.518;2023-07-09T16:44:52;13.87;;;8.50;;
65715;SDS011;63484;52.054;8.518;2023-07-09T16:49:57;12.65;;;6.60;;
65715;SDS011;63484;52.054;8.518;2023-07-09T16:55:01;10.30;;;7.18;;
65715;SDS011;63484;52.054;8.518;2023-07-09T17:05:28;10.50;;;4.43;;
65715;SDS011;63484;52.054;8.518;2023-07-09T17:10:30;10.75;;;4.07;;
65715;SDS011;63484;52.054;8.518;2023-07-09T17:15:33;15.30;;;4.60;;
65715;SDS011;63484;52.054;8.518;2023-07-09T17:20:41;7.32;;;4.05;;
65715;SDS011;63484;52.054;8.518;2023-07-09T17:25:42;8.77;;;4.25;;
65715;SDS011;63484;52.054;8.518;2023-07-09T17:30:45;8.93;;;4.27;;
65715;SDS011;63484;52.054;8.518;2023-07-09T17:35:49;11.30;;;4.90;;
65715;SDS011;63484;52.054;8.518;2023-07-09T17:40:52;11.50;;;4.38;;
65715;SDS011;63484;52.054;8.518;2023-07-09T17:45:56;10.40;;;4.25;;
65715;SDS011;63484;52.054;8.518;2023-07-09T17:51:02;6.47;;;4.10;;
65715;SDS011;63484;52.054;8.518;2023-07-09T17:56:08;13.18;;;4.50;;
65715;SDS011;63484;52.054;8.518;2023-07-09T18:01:20;7.53;;;4.43;;
65715;SDS011;63484;52.054;8.518;2023-07-09T18:06:23;11.82;;;4.43;;
65715;SDS011;63484;52.054;8.518;2023-07-09T18:11:27;9.55;;;4.97;;
65715;SDS011;63484;52.054;8.518;2023-07-09T18:16:29;10.20;;;4.63;;
65715;SDS011;63484;52.054;8.518;2023-07-09T18:21:33;11.88;;;4.72;;
65715;SDS011;63484;52.054;8.518;2023-07-09T18:26:35;8.05;;;4.50;;
65715;SDS011;63484;52.054;8.518;2023-07-09T18:31:37;10.60;;;4.82;;
65715;SDS011;63484;52.054;8.518;2023-07-09T18:36:40;11.02;;;4.47;;
65715;SDS011;63484;52.054;8.518;2023-07-09T18:41:42;10.13;;;4.53;;
65715;SDS011;63484;52.054;8.518;2023-07-09T18:46:46;9.50;;;4.28;;
65715;SDS011;63484;52.054;8.518;2023-07-09T18:51:50;8.35;;;4.43;;
65715;SDS011;63484;52.054;8.518;2023-07-09T18:56:52;6.30;;;3.97;;
65715;SDS011;63484;52.054;8.518;2023-07-09T19:01:53;8.88;;;4.25;;
65715;SDS011;63484;52.054;8.518;2023-07-09T19:06:56;8.55;;;4.70;;
65715;SDS011;63484;52.054;8.518;2023-07-09T19:11:58;9.68;;;4.40;;
65715;SDS011;63484;52.054;8.518;2023-07-09T19:17:12;6.28;;;4.15;;
65715;SDS011;63484;52.054;8.518;2023-07-09T19:22:17;11.40;;;4.40;;
65715;SDS011;63484;52.054;8.518;2023-07-09T19:27:22;7.38;;;4.43;;
65715;SDS011;63484;52.054;8.518;2023-07-09T19:32:25;8.70;;;4.55;;
65715;SDS011;63484;52.054;8.518;2023-07-09T19:37:29;8.23;;;4.25;;
65715;SDS011;63484;52.054;8.518;2023-07-09T19:42:31;8.52;;;4.57;;
65715;SDS011;63484;52.054;8.518;2023-07-09T19:47:33;8.13;;;4.45;;
65715;SDS011;63484;52.054;8.518;2023-07-09T19:52:40;10.20;;;4.40;;
65715;SDS011;63484;52.054;8.518;2023-07-09T19:57:42;10.00;;;4.82;;
65715;SDS011;63484;52.054;8.518;2023-07-09T20:02:44;9.38;;;4.97;;
65715;SDS011;63484;52.054;8.518;2023-07-09T20:07:48;9.57;;;4.50;;
65715;SDS011;63484;52.054;8.518;2023-07-09T20:12:51;10.27;;;5.30;;
65715;SDS011;63484;52.054;8.518;2023-07-09T20:17:58;8.05;;;5.13;;
65715;SDS011;63484;52.054;8.518;2023-07-09T20:23:02;7.75;;;4.80;;
65715;SDS011;63484;52.054;8.518;2023-07-09T20:28:04;10.60;;;5.20;;
65715;SDS011;63484;52.054;8.518;2023-07-09T20:33:15;8.80;;;5.07;;
65715;SDS011;63484;52.054;8.518;2023-07-09T20:38:19;7.85;;;4.90;;
65715;SDS011;63484;52.054;8.518;2023-07-09T20:43:23;10.25;;;5.32;;
65715;SDS011;63484;52.054;8.518;2023-07-09T20:48:27;10.80;;;4.72;;
65715;SDS011;63484;52.054;8.518;2023-07-09T20:53:31;12.50;;;6.50;;
65715;SDS011;63484;52.054;8.518;2023-07-09T20:58:32;10.43;;;5.10;;
65715;SDS011;63484;52.054;8.518;2023-07-09T21:03:34;9.48;;;5.07;;
65715;SDS011;63484;52.054;8.518;2023-07-09T21:08:37;12.10;;;5.65;;
65715;SDS011;63484;52.054;8.518;2023-07-09T21:13:39;9.95;;;4.85;;
65715;SDS011;63484;52.054;8.518;2023-07-09T21:18:40;8.32;;;5.53;;
65715;SDS011;63484;52.054;8.518;2023-07-09T21:23:44;11.10;;;5.32;;
65715;SDS011;63484;52.054;8.518;2023-07-09T21:28:48;10.52;;;5.32;;
65715;SDS011;63484;52.054;8.518;2023-07-09T21:33:52;12.15;;;5.60;;
65715;SDS011;63484;52.054;8.518;2023-07-09T21:38:57;13.52;;;6.28;;
65715;SDS011;63484;52.054;8.518;2023-07-09T21:43:58;9.77;;;5.38;;
65715;SDS011;63484;52.054;8.518;2023-07-09T21:49:00;15.85;;;7.30;;
65715;SDS011;63484;52.054;8.518;2023-07-09T21:54:09;9.82;;;5.93;;
65715;SDS011;63484;52.054;8.518;2023-07-09T21:59:28;13.40;;;5.95;;
65715;SDS011;63484;52.054;8.518;2023-07-09T22:04:32;10.93;;;6.20;;
65715;SDS011;63484;52.054;8.518;2023-07-09T22:09:39;10.95;;;6.20;;
65715;SDS011;63484;52.054;8.518;2023-07-09T22:14:41;12.20;;;6.50;;
65715;SDS011;63484;52.054;8.518;2023-07-09T22:19:43;12.60;;;5.97;;
65715;SDS011;63484;52.054;8.518;2023-07-09T22:24:47;9.50;;;6.03;;
65715;SDS011;63484;52.054;8.518;2023-07-09T22:29:51;12.32;;;6.35;;
65715;SDS011;63484;52.054;8.518;2023-07-09T22:34:53;12.63;;;6.32;;
65715;SDS011;63484;52.054;8.518;2023-07-09T22:39:59;12.20;;;5.45;;
65715;SDS011;63484;52.054;8.518;2023-07-09T22:45:13;10.05;;;5.90;;
65715;SDS011;63484;52.054;8.518;2023-07-09T22:50:16;17.17;;;6.23;;
65715;SDS011;63484;52.054;8.518;2023-07-09T23:00:40;11.63;;;6.93;;
65715;SDS011;63484;52.054;8.518;2023-07-09T23:05:45;11.75;;;6.45;;
65715;SDS011;63484;52.054;8.518;2023-07-09T23:10:49;11.17;;;6.50;;
65715;SDS011;63484;52.054;8.518;2023-07-09T23:15:51;11.82;;;6.53;;
65715;SDS011;63484;52.054;8.518;2023-07-09T23:20:54;11.57;;;6.57;;
65715;SDS011;63484;52.054;8.518;2023-07-09T23:26:00;11.23;;;6.68;;
65715;SDS011;63484;52.054;8.518;2023-07-09T23:31:04;11.52;;;6.53;;
65715;SDS011;63484;52.054;8.518;2023-07-09T23:36:08;11.48;;;6.45;;
65715;SDS011;63484;52.054;8.518;2023-07-09T23:41:17;10.52;;;6.75;;
65715;SDS011;63484;52.054;8.518;2023-07-09T23:46:26;17.33;;;6.60;;
65715;SDS011;63484;52.054;8.518;2023-07-09T23:51:30;10.00;;;6.07;;
65715;SDS011;63484;52.054;8.518;2023-07-09T23:56:34;9.90;;;6.93;;
